sensor_id;sensor_type;location;lat;lon;timestamp;P1;durP1;ratioP1;P2;durP2;ratioP2
53939;SDS011;39850;43.324;21.916;2023-01-09T00:04:36;151.0;;;100.0;;
53939;SDS011;39850;43.324;21.916;2023-01-09T00:09:13;151.0;;;100.0;;
53939;SDS011;39850;43.324;21.916;2023-01-09T00:13:50;111.0;;;77.0;;
53939;SDS011;39850;43.324;21.916;2023-01-09T00:18:27;111.0;;;77.0;;
53939;SDS011;39850;43.324;21.916;2023-01-09T00:56:17;96.0;;;70.0;;
53939;SDS011;39850;43.324;21.916;2023-01-09T01:00:55;96.0;;;70.0;;
53939;SDS011;39850;43.324;21.916;2023-01-09T01:05:32;102.0;;;74.0;;
53939;SDS011;39850;43.324;21.916;2023-01-09T01:10:21;102.0;;;74.0;;
53939;SDS011;39850;43.324;21.916;2023-01-09T01:15:00;96.0;;;70.0;;
53939;SDS011;39850;43.324;21.916;2023-01-09T01:19:36;96.0;;;70.0;;
53939;SDS011;39850;43.324;21.916;2023-01-09T01:24:13;96.0;;;70.0;;
53939;SDS011;39850;43.324;21.916;2023-01-09T01:28:49;96.0;;;70.0;;
53939;SDS011;39850;43.324;21.916;2023-01-09T01:33:26;82.0;;;60.0;;
53939;SDS011;39850;43.324;21.916;2023-01-09T01:38:04;82.0;;;60.0;;
53939;SDS011;39850;43.324;21.916;2023-01-09T02:16:52;109.0;;;80.0;;
53939;SDS011;39850;43.324;21.916;2023-01-09T02:22:26;109.0;;;80.0;;
53939;SDS011;39850;43.324;21.916;2023-01-09T02:28:54;112.0;;;83.0;;
53939;SDS011;39850;43.324;21.916;2023-01-09T02:36:07;109.0;;;80.0;;
53939;SDS011;39850;43.324;21.916;2023-01-09T02:41:29;109.0;;;80.0;;
53939;SDS011;39850;43.324;21.916;2023-01-09T02:46:23;111.0;;;83.0;;
53939;SDS011;39850;43.324;21.916;2023-01-09T02:51:37;111.0;;;83.0;;
53939;SDS011;39850;43.324;21.916;2023-01-09T02:57:40;106.0;;;80.0;;
53939;SDS011;39850;43.324;21.916;2023-01-09T03:36:24;31.0;;;25.0;;
53939;SDS011;39850;43.324;21.916;2023-01-09T03:41:03;31.0;;;25.0;;
53939;SDS011;39850;43.324;21.916;2023-01-09T03:45:42;28.0;;;24.0;;
53939;SDS011;39850;43.324;21.916;2023-01-09T03:50:18;28.0;;;24.0;;
53939;SDS011;39850;43.324;21.916;2023-01-09T03:54:55;26.0;;;22.0;;
53939;SDS011;39850;43.324;21.916;2023-01-09T03:59:31;26.0;;;22.0;;
53939;SDS011;39850;43.324;21.916;2023-01-09T04:04:08;25.0;;;22.0;;
53939;SDS011;39850;43.324;21.916;2023-01-09T04:08:44;25.0;;;22.0;;
53939;SDS011;39850;43.324;21.916;2023-01-09T04:13:21;24.0;;;21.0;;
53939;SDS011;39850;43.324;21.916;2023-01-09T04:17:58;24.0;;;21.0;;
53939;SDS011;39850;43.324;21.916;2023-01-09T04:22:34;24.0;;;21.0;;
53939;SDS011;39850;43.324;21.916;2023-01-09T04:54:48;26.0;;;23.0;;
53939;SDS011;39850;43.324;21.916;2023-01-09T04:59:25;26.0;;;23.0;;
53939;SDS011;39850;43.324;21.916;2023-01-09T05:04:03;28.0;;;24.0;;
53939;SDS011;39850;43.324;21.916;2023-01-09T05:08:41;28.0;;;24.0;;
53939;SDS011;39850;43.324;21.916;2023-01-09T05:13:18;26.0;;;23.0;;
53939;SDS011;39850;43.324;21.916;2023-01-09T05:17:55;26.0;;;23.0;;
53939;SDS011;39850;43.324;21.916;2023-01-09T05:22:32;26.0;;;23.0;;
53939;SDS011;39850;43.324;21.916;2023-01-09T05:27:09;28.0;;;24.0;;
53939;SDS011;39850;43.324;21.916;2023-01-09T05:31:46;28.0;;;24.0;;
53939;SDS011;39850;43.324;21.916;2023-01-09T05:36:23;26.0;;;23.0;;
53939;SDS011;39850;43.324;21.916;2023-01-09T05:41:00;26.0;;;23.0;;
53939;SDS011;39850;43.324;21.916;2023-01-09T06:17:54;22.0;;;20.0;;
53939;SDS011;39850;43.324;21.916;2023-01-09T06:22:30;22.0;;;20.0;;
53939;SDS011;39850;43.324;21.916;2023-01-09T06:27:07;22.0;;;20.0;;
53939;SDS011;39850;43.324;21.916;2023-01-09T06:31:44;22.0;;;20.0;;
53939;SDS011;39850;43.324;21.916;2023-01-09T06:36:22;22.0;;;20.0;;
53939;SDS011;39850;43.324;21.916;2023-01-09T06:40:58;22.0;;;20.0;;
53939;SDS011;39850;43.324;21.916;2023-01-09T06:45:35;23.0;;;20.0;;
53939;SDS011;39850;43.324;21.916;2023-01-09T06:50:12;23.0;;;20.0;;
53939;SDS011;39850;43.324;21.916;2023-01-09T06:54:48;24.0;;;21.0;;
53939;SDS011;39850;43.324;21.916;2023-01-09T06:59:25;24.0;;;21.0;;
53939;SDS011;39850;43.324;21.916;2023-01-09T07:36:17;22.0;;;20.0;;
53939;SDS011;39850;43.324;21.916;2023-01-09T07:40:54;22.0;;;20.0;;
53939;SDS011;39850;43.324;21.916;2023-01-09T07:45:31;20.0;;;18.0;;
53939;SDS011;39850;43.324;21.916;2023-01-09T07:50:10;20.0;;;18.0;;
53939;SDS011;39850;43.324;21.916;2023-01-09T07:54:48;21.0;;;19.0;;
53939;SDS011;39850;43.324;21.916;2023-01-09T07:59:25;21.0;;;19.0;;
53939;SDS011;39850;43.324;21.916;2023-01-09T08:04:03;20.0;;;18.0;;
53939;SDS011;39850;43.324;21.916;2023-01-09T08:08:40;20.0;;;18.0;;
53939;SDS011;39850;43.324;21.916;2023-01-09T08:13:17;20.0;;;18.0;;
53939;SDS011;39850;43.324;21.916;2023-01-09T08:17:56;21.0;;;19.0;;
53939;SDS011;39850;43.324;21.916;2023-01-09T08:22:33;21.0;;;19.0;;
53939;SDS011;39850;43.324;21.916;2023-01-09T08:54:50;18.0;;;16.0;;
53939;SDS011;39850;43.324;21.916;2023-01-09T08:59:26;18.0;;;16.0;;
53939;SDS011;39850;43.324;21.916;2023-01-09T09:04:04;18.0;;;16.0;;
53939;SDS011;39850;43.324;21.916;2023-01-09T09:08:40;18.0;;;16.0;;
53939;SDS011;39850;43.324;21.916;2023-01-09T09:13:17;18.0;;;16.0;;
53939;SDS011;39850;43.324;21.916;2023-01-09T09:18:01;18.0;;;16.0;;
53939;SDS011;39850;43.324;21.916;2023-01-09T09:22:40;18.0;;;16.0;;
53939;SDS011;39850;43.324;21.916;2023-01-09T09:27:16;18.0;;;16.0;;
53939;SDS011;39850;43.324;21.916;2023-01-09T09:31:53;18.0;;;16.0;;
53939;SDS011;39850;43.324;21.916;2023-01-09T09:36:29;19.0;;;17.0;;
53939;SDS011;39850;43.324;21.916;2023-01-09T10:20:07;15.0;;;14.0;;
53939;SDS011;39850;43.324;21.916;2023-01-09T10:25:45;14.0;;;14.0;;
53939;SDS011;39850;43.324;21.916;2023-01-09T10:30:59;14.0;;;14.0;;
53939;SDS011;39850;43.324;21.916;2023-01-09T10:37:03;15.0;;;14.0;;
53939;SDS011;39850;43.324;21.916;2023-01-09T10:42:25;15.0;;;14.0;;
53939;SDS011;39850;43.324;21.916;2023-01-09T10:47:38;16.0;;;14.0;;
53939;SDS011;39850;43.324;21.916;2023-01-09T10:52:40;16.0;;;14.0;;
53939;SDS011;39850;43.324;21.916;2023-01-09T10:57:49;18.0;;;16.0;;
53939;SDS011;39850;43.324;21.916;2023-01-09T11:02:35;18.0;;;16.0;;
53939;SDS011;39850;43.324;21.916;2023-01-09T11:36:38;25.0;;;20.0;;
53939;SDS011;39850;43.324;21.916;2023-01-09T11:41:29;25.0;;;20.0;;
53939;SDS011;39850;43.324;21.916;2023-01-09T11:46:38;25.0;;;20.0;;
53939;SDS011;39850;43.324;21.916;2023-01-09T11:51:26;25.0;;;20.0;;
53939;SDS011;39850;43.324;21.916;2023-01-09T11:56:07;20.0;;;17.0;;
53939;SDS011;39850;43.324;21.916;2023-01-09T12:01:37;20.0;;;17.0;;
53939;SDS011;39850;43.324;21.916;2023-01-09T12:09:19;16.0;;;14.0;;
53939;SDS011;39850;43.324;21.916;2023-01-09T12:15:25;16.0;;;14.0;;
53939;SDS011;39850;43.324;21.916;2023-01-09T12:21:04;16.0;;;14.0;;
53939;SDS011;39850;43.324;21.916;2023-01-09T12:57:36;13.0;;;11.0;;
53939;SDS011;39850;43.324;21.916;2023-01-09T13:02:44;13.0;;;11.0;;
53939;SDS011;39850;43.324;21.916;2023-01-09T13:07:47;12.0;;;10.0;;
53939;SDS011;39850;43.324;21.916;2023-01-09T13:12:46;12.0;;;10.0;;
53939;SDS011;39850;43.324;21.916;2023-01-09T13:17:49;12.0;;;10.0;;
53939;SDS011;39850;43.324;21.916;2023-01-09T13:22:33;12.0;;;10.0;;
53939;SDS011;39850;43.324;21.916;2023-01-09T13:27:24;12.0;;;10.0;;
53939;SDS011;39850;43.324;21.916;2023-01-09T13:32:57;12.0;;;10.0;;
53939;SDS011;39850;43.324;21.916;2023-01-09T13:37:53;11.0;;;9.0;;
53939;SDS011;39850;43.324;21.916;2023-01-09T13:42:32;11.0;;;9.0;;
53939;SDS011;39850;43.324;21.916;2023-01-09T14:17:38;16.0;;;14.0;;
53939;SDS011;39850;43.324;21.916;2023-01-09T14:22:36;16.0;;;14.0;;
53939;SDS011;39850;43.324;21.916;2023-01-09T14:28:25;18.0;;;15.0;;
53939;SDS011;39850;43.324;21.916;2023-01-09T14:33:28;18.0;;;15.0;;
53939;SDS011;39850;43.324;21.916;2023-01-09T14:38:33;16.0;;;14.0;;
53939;SDS011;39850;43.324;21.916;2023-01-09T14:43:50;16.0;;;14.0;;
53939;SDS011;39850;43.324;21.916;2023-01-09T14:48:59;17.0;;;14.0;;
53939;SDS011;39850;43.324;21.916;2023-01-09T14:53:43;17.0;;;14.0;;
53939;SDS011;39850;43.324;21.916;2023-01-09T14:58:29;15.0;;;13.0;;
53939;SDS011;39850;43.324;21.916;2023-01-09T15:03:10;15.0;;;13.0;;
53939;SDS011;39850;43.324;21.916;2023-01-09T15:36:53;20.0;;;17.0;;
53939;SDS011;39850;43.324;21.916;2023-01-09T15:41:31;20.0;;;17.0;;
53939;SDS011;39850;43.324;21.916;2023-01-09T15:46:14;25.0;;;21.0;;
53939;SDS011;39850;43.324;21.916;2023-01-09T15:51:05;25.0;;;21.0;;
53939;SDS011;39850;43.324;21.916;2023-01-09T15:56:23;25.0;;;21.0;;
53939;SDS011;39850;43.324;21.916;2023-01-09T16:01:29;25.0;;;21.0;;
53939;SDS011;39850;43.324;21.916;2023-01-09T16:06:28;28.0;;;23.0;;
53939;SDS011;39850;43.324;21.916;2023-01-09T16:11:34;28.0;;;23.0;;
53939;SDS011;39850;43.324;21.916;2023-01-09T16:16:33;25.0;;;21.0;;
53939;SDS011;39850;43.324;21.916;2023-01-09T16:21:42;25.0;;;21.0;;
53939;SDS011;39850;43.324;21.916;2023-01-09T16:59:47;37.0;;;33.0;;
53939;SDS011;39850;43.324;21.916;2023-01-09T17:04:24;37.0;;;33.0;;
53939;SDS011;39850;43.324;21.916;2023-01-09T17:09:00;37.0;;;33.0;;
53939;SDS011;39850;43.324;21.916;2023-01-09T17:13:37;37.0;;;33.0;;
53939;SDS011;39850;43.324;21.916;2023-01-09T17:18:21;29.0;;;26.0;;
53939;SDS011;39850;43.324;21.916;2023-01-09T17:22:59;29.0;;;26.0;;
53939;SDS011;39850;43.324;21.916;2023-01-09T17:27:37;21.0;;;19.0;;
53939;SDS011;39850;43.324;21.916;2023-01-09T17:32:17;21.0;;;19.0;;
53939;SDS011;39850;43.324;21.916;2023-01-09T17:36:54;21.0;;;19.0;;
53939;SDS011;39850;43.324;21.916;2023-01-09T17:41:32;21.0;;;19.0;;
53939;SDS011;39850;43.324;21.916;2023-01-09T18:19:00;17.0;;;15.0;;
53939;SDS011;39850;43.324;21.916;2023-01-09T18:23:37;17.0;;;15.0;;
53939;SDS011;39850;43.324;21.916;2023-01-09T18:28:14;18.0;;;16.0;;
53939;SDS011;39850;43.324;21.916;2023-01-09T18:32:51;18.0;;;16.0;;
53939;SDS011;39850;43.324;21.916;2023-01-09T18:37:28;20.0;;;17.0;;
53939;SDS011;39850;43.324;21.916;2023-01-09T18:42:06;20.0;;;17.0;;
53939;SDS011;39850;43.324;21.916;2023-01-09T18:46:43;20.0;;;17.0;;
53939;SDS011;39850;43.324;21.916;2023-01-09T18:51:25;20.0;;;17.0;;
53939;SDS011;39850;43.324;21.916;2023-01-09T18:56:06;20.0;;;17.0;;
53939;SDS011;39850;43.324;21.916;2023-01-09T19:00:43;20.0;;;17.0;;
53939;SDS011;39850;43.324;21.916;2023-01-09T19:05:21;20.0;;;17.0;;
53939;SDS011;39850;43.324;21.916;2023-01-09T19:37:39;18.0;;;16.0;;
53939;SDS011;39850;43.324;21.916;2023-01-09T19:42:16;18.0;;;16.0;;
53939;SDS011;39850;43.324;21.916;2023-01-09T19:46:52;18.0;;;16.0;;
53939;SDS011;39850;43.324;21.916;2023-01-09T19:51:31;18.0;;;16.0;;
53939;SDS011;39850;43.324;21.916;2023-01-09T19:56:17;18.0;;;16.0;;
53939;SDS011;39850;43.324;21.916;2023-01-09T20:00:55;18.0;;;16.0;;
53939;SDS011;39850;43.324;21.916;2023-01-09T20:05:33;18.0;;;16.0;;
53939;SDS011;39850;43.324;21.916;2023-01-09T20:10:10;18.0;;;16.0;;
53939;SDS011;39850;43.324;21.916;2023-01-09T20:14:47;18.0;;;16.0;;
53939;SDS011;39850;43.324;21.916;2023-01-09T20:19:23;18.0;;;16.0;;
53939;SDS011;39850;43.324;21.916;2023-01-09T20:24:06;18.0;;;16.0;;
53939;SDS011;39850;43.324;21.916;2023-01-09T21:10:27;25.0;;;22.0;;
53939;SDS011;39850;43.324;21.916;2023-01-09T21:15:11;25.0;;;22.0;;
53939;SDS011;39850;43.324;21.916;2023-01-09T21:19:48;36.0;;;30.0;;
53939;SDS011;39850;43.324;21.916;2023-01-09T21:24:25;36.0;;;30.0;;
53939;SDS011;39850;43.324;21.916;2023-01-09T21:29:03;36.0;;;30.0;;
53939;SDS011;39850;43.324;21.916;2023-01-09T21:33:40;36.0;;;30.0;;
53939;SDS011;39850;43.324;21.916;2023-01-09T21:38:17;46.0;;;39.0;;
53939;SDS011;39850;43.324;21.916;2023-01-09T21:42:54;46.0;;;39.0;;
53939;SDS011;39850;43.324;21.916;2023-01-09T22:19:53;48.0;;;38.0;;
53939;SDS011;39850;43.324;21.916;2023-01-09T22:24:29;48.0;;;38.0;;
53939;SDS011;39850;43.324;21.916;2023-01-09T22:29:06;44.0;;;36.0;;
53939;SDS011;39850;43.324;21.916;2023-01-09T22:33:49;44.0;;;36.0;;
53939;SDS011;39850;43.324;21.916;2023-01-09T22:38:26;41.0;;;33.0;;
53939;SDS011;39850;43.324;21.916;2023-01-09T22:43:04;41.0;;;33.0;;
53939;SDS011;39850;43.324;21.916;2023-01-09T22:47:40;35.0;;;30.0;;
53939;SDS011;39850;43.324;21.916;2023-01-09T22:52:17;35.0;;;30.0;;
53939;SDS011;39850;43.324;21.916;2023-01-09T22:56:53;29.0;;;26.0;;
53939;SDS011;39850;43.324;21.916;2023-01-09T23:01:30;29.0;;;26.0;;
53939;SDS011;39850;43.324;21.916;2023-01-09T23:06:17;29.0;;;26.0;;
53939;SDS011;39850;43.324;21.916;2023-01-09T23:38:41;29.0;;;26.0;;
53939;SDS011;39850;43.324;21.916;2023-01-09T23:43:17;29.0;;;26.0;;
53939;SDS011;39850;43.324;21.916;2023-01-09T23:47:53;28.0;;;25.0;;
53939;SDS011;39850;43.324;21.916;2023-01-09T23:52:30;28.0;;;25.0;;
53939;SDS011;39850;43.324;21.916;2023-01-09T23:57:06;28.0;;;24.0;;
